Gaylordsville, Connecticut
Current Conditions -  °F | °C
As of 12:53 PM on Wednesday 28 Jan 2015 (Local Time) from KDXR Reporting Station
Clear Clear  
Wind Chill: 16°   Ceiling: Unl
Heat Index: 25°   Visibility: 10mi
Dew Point:   Wind: 9mph
Humidity: 43%   Direction: 330°NNW
Pressure: 30.03"   Gusts: 21mph
Location:  41.65°N, 73.48°W
Report Text: KDXR 281753Z 33008G18KT 10SM CLR M04/M15 A3003 RMK AO2 SLP177 T10391150 11039 21094 51009
Loading
Personal Weather Stations






























Interactive Weather Map New forecast layout! Learn more

10-Day Weather Forecast

Advertisements
Track Severe Weather on mobile